Time;durP1;ratioP1;P1;durP2;ratioP2;P2;SDS_P1;SDS_P2;PMS_P1;PMS_P2;Temp;Humidity;BMP_temperature;BMP_pressure;BME280_temperature;BME280_humidity;BME280_pressure;Samples;Min_cycle;Max_cycle;Signal;HPM_P1;HPM_P2
2023/03/10 00:01:21;;;;;;;25.03;15.17;;;3.80;99.90;;;-141.84;100.00;18377.22;5071481;28;20237;-60
2023/03/10 00:03:50;;;;;;;26.60;15.43;;;3.90;99.90;;;-141.84;100.00;18330.50;5052832;28;20235;-60
2023/03/10 00:06:23;;;;;;;23.40;13.50;;;3.90;99.90;;;-141.84;100.00;18356.91;5071528;28;20240;-60
2023/03/10 00:08:52;;;;;;;23.30;13.07;;;4.00;99.90;;;-141.84;100.00;18358.94;5071102;28;20226;-60
2023/03/10 00:11:20;;;;;;;20.70;12.60;;;4.10;99.90;;;-141.84;100.00;18397.53;5071285;28;20639;-61
2023/03/10 00:13:49;;;;;;;21.87;11.80;;;4.20;99.90;;;-141.84;100.00;18363.00;5071812;28;20292;-60
2023/03/10 00:16:21;;;;;;;18.30;10.80;;;4.30;99.90;;;-141.84;100.00;18415.81;5070788;28;20227;-59
2023/03/10 00:18:51;;;;;;;18.47;10.07;;;4.40;99.90;;;-141.84;100.00;18360.97;5071239;28;20220;-59
2023/03/10 00:21:23;;;;;;;17.33;9.80;;;4.50;99.90;;;-141.84;100.00;18356.91;5070939;28;20239;-59
2023/03/10 00:23:52;;;;;;;22.37;10.43;;;4.60;99.90;;;-141.84;100.00;18363.00;5070326;28;20228;-59
2023/03/10 00:26:22;;;;;;;13.53;8.90;;;4.70;99.90;;;-141.84;100.00;18417.84;5052252;28;20235;-61
2023/03/10 00:28:50;;;;;;;16.50;8.60;;;4.80;99.90;;;-141.84;100.00;18381.28;5071433;28;20683;-59
2023/03/10 00:31:23;;;;;;;17.37;8.17;;;4.90;99.90;;;-141.84;100.00;18373.16;5070886;28;20240;-59
2023/03/10 00:33:52;;;;;;;16.80;8.23;;;5.00;99.90;;;-141.84;100.00;18399.56;5071198;28;20655;-61
2023/03/10 00:36:23;;;;;;;14.93;7.70;;;5.10;99.90;;;-141.84;100.00;18358.94;5070699;28;20733;-60
2023/03/10 00:38:54;;;;;;;13.37;7.73;;;5.50;99.90;;;-141.84;100.00;18430.06;5070644;28;20219;-60
2023/03/10 00:41:26;;;;;;;15.17;7.83;;;5.40;99.90;;;-141.84;100.00;18393.47;5071121;28;20228;-60
2023/03/10 00:43:54;;;;;;;14.03;6.80;;;5.40;99.90;;;-141.84;100.00;18415.81;5070951;28;20177;-62
2023/03/10 00:46:25;;;;;;;8.93;6.20;;;5.50;99.90;;;-141.84;100.00;18421.91;5070952;28;20560;-59
2023/03/10 00:48:53;;;;;;;11.90;6.20;;;5.50;99.90;;;-141.84;100.00;18428.03;5070853;28;20232;-59
2023/03/10 00:51:22;;;;;;;11.47;6.17;;;5.70;99.90;;;-141.84;100.00;18452.41;5070798;28;20240;-59
2023/03/10 00:53:51;;;;;;;12.97;5.80;;;5.80;99.90;;;-141.84;100.00;18482.88;5070808;28;20231;-60
2023/03/10 00:56:22;;;;;;;13.03;5.27;;;5.80;99.90;;;-141.84;100.00;18464.59;5070835;28;20221;-58
2023/03/10 00:58:53;;;;;;;13.10;6.30;;;5.80;99.90;;;-141.84;100.00;18503.19;5071409;28;20212;-59
2023/03/10 01:01:28;;;;;;;10.97;5.53;;;5.80;99.90;;;-141.84;100.00;18488.97;5070774;28;20208;-60
2023/03/10 01:03:59;;;;;;;9.77;5.40;;;5.80;99.90;;;-141.84;100.00;18517.41;5070512;28;20232;-59
2023/03/10 01:06:28;;;;;;;10.53;5.00;;;5.80;99.90;;;-141.84;100.00;18495.06;5070400;28;20228;-59
2023/03/10 01:08:56;;;;;;;11.07;4.77;;;5.90;99.90;;;-141.84;100.00;18491.00;5070535;28;20232;-60
2023/03/10 01:11:28;;;;;;;12.27;5.13;;;6.00;99.90;;;-141.84;99.60;18521.47;5070386;28;20246;-60
2023/03/10 01:14:00;;;;;;;8.93;4.00;;;6.10;99.90;;;-141.84;99.11;18558.03;5070547;28;20185;-60
2023/03/10 01:16:31;;;;;;;16.17;4.73;;;6.20;99.90;;;-141.84;98.66;18558.03;5071005;28;20193;-60
2023/03/10 01:19:00;;;;;;;13.67;4.07;;;6.20;99.90;;;-141.84;98.49;18537.72;5070610;28;20240;-60
2023/03/10 01:21:32;;;;;;;9.97;3.90;;;6.30;99.90;;;-141.84;97.91;18580.41;5070143;28;20236;-60
2023/03/10 01:24:01;;;;;;;8.90;3.67;;;6.30;99.90;;;-141.84;97.98;18539.75;5070334;28;20231;-58
2023/03/10 01:26:30;;;;;;;9.27;3.67;;;6.30;99.90;;;-141.84;98.14;18549.91;5070283;28;20336;-60
2023/03/10 01:28:59;;;;;;;10.53;3.40;;;6.30;99.90;;;-141.84;97.96;18572.25;5070455;28;20197;-60
2023/03/10 01:31:27;;;;;;;11.17;3.20;;;6.40;99.90;;;-141.84;97.78;18535.69;5070713;28;20208;-61
2023/03/10 01:33:57;;;;;;;6.17;2.63;;;6.40;99.90;;;-141.84;97.71;18545.84;5070349;28;20224;-60
2023/03/10 01:36:27;;;;;;;5.97;3.20;;;6.50;99.90;;;-141.84;97.49;18572.25;5075368;28;20250;-60
2023/03/10 01:38:57;;;;;;;8.50;2.90;;;6.50;99.90;;;-141.84;97.72;18582.44;5076702;28;20220;-60
2023/03/10 01:41:26;;;;;;;8.17;3.10;;;6.60;99.90;;;-141.84;97.38;18580.41;5076747;28;20220;-59
2023/03/10 01:43:55;;;;;;;6.83;3.00;;;6.70;99.90;;;-141.84;96.40;18584.47;5076962;28;20208;-64
2023/03/10 01:46:44;;;;;;;9.23;2.60;;;6.80;99.90;;;-141.84;94.90;18602.75;5076857;28;20204;-60
2023/03/10 01:49:24;;;;;;;6.83;2.30;;;6.90;99.90;;;-141.84;93.81;18621.03;5076777;28;20227;-59
2023/03/10 01:52:00;;;;;;;5.73;1.90;;;6.90;99.90;;;-141.84;92.08;18621.03;5076667;28;20223;-60
2023/03/10 01:54:37;;;;;;;6.13;2.13;;;7.00;99.90;;;-141.84;90.48;18619.00;5076838;28;20223;-60
2023/03/10 01:57:06;;;;;;;6.77;2.30;;;7.10;99.90;;;-141.84;89.89;18645.41;5058964;28;20220;-60
2023/03/10 01:59:35;;;;;;;10.87;2.37;;;7.20;99.90;;;-141.84;89.86;18612.91;5076788;28;20630;-59
2023/03/10 02:02:05;;;;;;;5.07;1.83;;;7.20;99.90;;;-141.84;88.90;18637.28;5068416;28;20204;-60
2023/03/10 02:04:42;;;;;;;4.73;1.87;;;7.30;99.90;;;-141.84;88.56;18657.59;5077338;28;20204;-59
2023/03/10 02:07:12;;;;;;;5.00;1.90;;;7.30;99.90;;;-141.84;87.48;18675.88;5076421;28;20242;-60
2023/03/10 02:09:44;;;;;;;6.83;2.50;;;7.40;99.90;;;-141.84;87.33;18653.53;5076468;28;20243;-60
2023/03/10 02:12:15;;;;;;;5.33;1.80;;;7.60;99.90;;;-141.84;88.28;18621.03;5076533;28;20243;-60
2023/03/10 02:14:45;;;;;;;7.50;2.10;;;7.30;99.90;;;-141.84;88.91;18635.25;5076875;28;20307;-59
2023/03/10 02:17:17;;;;;;;3.87;1.90;;;7.30;99.90;;;-141.84;89.32;18623.06;5076679;28;20213;-60
2023/03/10 02:20:04;;;;;;;8.63;2.10;;;7.20;99.90;;;-141.84;88.21;18653.53;5076638;28;20240;-60
2023/03/10 02:22:33;;;;;;;6.73;1.80;;;7.30;99.90;;;-141.84;88.57;18665.72;5076778;28;20262;-59
2023/03/10 02:25:14;;;;;;;5.80;2.07;;;7.30;99.90;;;-141.84;87.56;18651.50;5076291;28;20738;-59
2023/03/10 02:27:43;;;;;;;4.53;2.10;;;7.30;99.90;;;-141.84;86.64;18690.09;5076343;28;20528;-60
2023/03/10 02:30:18;;;;;;;4.07;1.50;;;7.40;99.90;;;-141.84;86.39;18710.44;5076712;28;20247;-60
2023/03/10 02:32:51;;;;;;;7.03;2.23;;;7.50;99.90;;;-141.84;85.82;18684.00;5076129;28;20227;-60
2023/03/10 02:35:20;;;;;;;6.20;2.10;;;7.50;99.90;;;-141.84;85.56;18700.25;5076672;28;20220;-60
2023/03/10 02:37:49;;;;;;;6.07;1.80;;;7.50;99.90;;;-141.84;86.41;18684.00;5076785;28;20243;-59
2023/03/10 02:40:35;;;;;;;5.40;2.00;;;7.50;99.90;;;-141.84;85.06;18720.59;5076207;28;20228;-60
2023/03/10 02:43:14;;;;;;;4.90;1.80;;;7.60;99.90;;;-141.84;85.54;18753.09;5076167;28;20583;-61
2023/03/10 02:45:46;;;;;;;8.13;2.17;;;7.60;99.90;;;-141.84;85.38;18742.94;5076192;28;20310;-60
2023/03/10 02:48:22;;;;;;;5.87;2.17;;;7.60;99.90;;;-141.84;85.44;18716.53;5072453;28;20232;-60
2023/03/10 02:50:56;;;;;;;6.27;1.80;;;7.60;99.90;;;-141.84;85.55;18773.41;5073371;28;20233;-60
2023/03/10 02:53:28;;;;;;;7.07;1.77;;;7.60;99.90;;;-141.84;84.76;18773.41;5072786;28;20228;-60
2023/03/10 02:55:58;;;;;;;7.40;2.00;;;7.70;99.90;;;-141.84;84.63;18787.63;5073230;28;20188;-60
2023/03/10 02:58:32;;;;;;;3.87;2.07;;;7.60;99.90;;;-141.84;84.78;18765.28;5073344;28;20299;-60
2023/03/10 03:01:00;;;;;;;6.33;1.90;;;7.70;99.90;;;-141.84;84.27;18771.38;5073162;28;20319;-60
2023/03/10 03:03:28;;;;;;;5.93;1.60;;;7.70;99.90;;;-141.84;84.76;18775.44;5072841;28;20220;-59
2023/03/10 03:05:57;;;;;;;3.30;1.87;;;7.70;99.90;;;-141.84;83.82;18791.69;5072781;28;20307;-60
2023/03/10 03:08:25;;;;;;;6.97;2.50;;;7.80;99.90;;;-141.84;83.81;18809.97;5072351;28;20220;-59
2023/03/10 03:10:54;;;;;;;6.40;1.73;;;7.80;99.90;;;-141.84;83.45;18773.41;5074383;28;20209;-59
2023/03/10 03:13:23;;;;;;;5.33;1.83;;;7.80;99.90;;;-141.84;84.09;18793.72;5073627;28;20227;-61
2023/03/10 03:15:52;;;;;;;4.50;1.43;;;7.80;99.90;;;-141.84;84.00;18775.44;5072695;28;20239;-60
2023/03/10 03:18:20;;;;;;;3.90;1.70;;;7.70;99.90;;;-141.84;84.37;18803.88;5072624;28;20232;-60
2023/03/10 03:20:49;;;;;;;4.77;1.70;;;7.70;99.90;;;-141.84;84.51;18753.09;5072365;28;20629;-60
2023/03/10 03:23:17;;;;;;;4.90;1.87;;;7.70;99.90;;;-141.84;84.30;18771.38;5072169;28;20680;-60
2023/03/10 03:25:46;;;;;;;4.37;2.00;;;7.70;99.90;;;-141.84;83.98;18797.78;5073167;28;20322;-60
2023/03/10 03:28:14;;;;;;;3.30;2.03;;;7.70;99.90;;;-141.84;83.49;18805.91;5064786;28;20481;-60
2023/03/10 03:30:45;;;;;;;4.07;1.83;;;7.80;99.90;;;-141.84;83.02;18781.53;5052302;28;20226;-60
2023/03/10 03:33:15;;;;;;;4.73;2.07;;;7.80;99.90;;;-141.84;84.55;18791.69;5052381;28;20225;-60
2023/03/10 03:35:44;;;;;;;5.57;2.00;;;7.70;99.90;;;-141.84;83.93;18797.78;5052063;28;20739;-59
2023/03/10 03:38:12;;;;;;;4.43;1.67;;;7.70;99.90;;;-141.84;83.80;18814.03;5060172;28;20570;-59
2023/03/10 03:40:43;;;;;;;3.23;1.80;;;7.80;99.90;;;-141.84;83.58;18824.22;5072937;28;20218;-61
2023/03/10 03:43:14;;;;;;;6.20;1.97;;;7.80;99.90;;;-141.84;83.41;18820.16;5071926;28;20699;-60
2023/03/10 03:45:42;;;;;;;6.37;2.00;;;7.80;99.90;;;-141.84;83.82;18797.78;5071974;28;20232;-60
2023/03/10 03:48:14;;;;;;;3.10;1.57;;;7.80;99.90;;;-141.84;83.22;18814.03;5071900;28;20228;-60
2023/03/10 03:50:42;;;;;;;6.27;1.50;;;7.80;99.90;;;-141.84;83.86;18801.84;5071919;28;20221;-60
2023/03/10 03:53:11;;;;;;;5.40;2.03;;;7.80;99.90;;;-141.84;83.24;18807.94;5071656;28;20211;-59
2023/03/10 03:55:39;;;;;;;4.80;2.00;;;7.80;99.90;;;-141.84;82.14;18852.66;5072120;28;20212;-59
2023/03/10 03:58:07;;;;;;;4.73;2.40;;;7.90;99.90;;;-141.84;82.13;18840.47;5071203;28;20638;-60
2023/03/10 04:00:38;;;;;;;4.27;2.20;;;8.00;99.90;;;-141.84;81.23;18875.00;5071436;28;20224;-60
2023/03/10 04:03:07;;;;;;;3.37;1.83;;;8.00;99.90;;;-141.84;81.50;18864.84;5071606;28;20313;-63
2023/03/10 04:05:36;;;;;;;4.37;1.60;;;8.00;99.90;;;-141.84;81.63;18842.50;5071325;28;20225;-61
2023/03/10 04:08:05;;;;;;;6.70;2.10;;;8.00;99.90;;;-141.84;81.54;18844.53;5071146;28;20196;-60
2023/03/10 04:10:34;;;;;;;6.97;1.97;;;8.10;99.90;;;-141.84;81.50;18844.53;5071783;28;20201;-60
2023/03/10 04:13:02;;;;;;;4.03;1.77;;;8.10;99.90;;;-141.84;81.96;18856.72;5070994;28;20228;-59
2023/03/10 04:15:30;;;;;;;3.93;1.33;;;8.00;99.90;;;-141.84;81.56;18881.09;5071123;28;20773;-61
2023/03/10 04:17:59;;;;;;;4.00;1.90;;;8.00;99.90;;;-141.84;81.22;18889.22;5070923;28;20708;-60
2023/03/10 04:20:27;;;;;;;4.40;1.70;;;8.10;99.90;;;-141.84;81.11;18875.00;5070709;28;20228;-59
2023/03/10 04:22:58;;;;;;;4.50;1.93;;;8.10;99.90;;;-141.84;80.47;18870.94;5070707;28;20205;-61
2023/03/10 04:25:26;;;;;;;5.67;1.77;;;8.20;99.90;;;-141.84;80.57;18915.63;5056254;28;20209;-60
2023/03/10 04:27:54;;;;;;;3.13;1.53;;;8.20;99.90;;;-141.84;80.46;18891.25;5070426;28;20228;-61
2023/03/10 04:30:28;;;;;;;3.93;1.80;;;8.20;99.90;;;-141.84;80.30;18919.69;5071085;28;20224;-59
2023/03/10 04:32:59;;;;;;;2.77;1.60;;;8.30;99.90;;;-141.84;80.18;18905.47;5052124;28;20227;-60
2023/03/10 04:35:27;;;;;;;4.10;2.13;;;8.20;99.90;;;-141.84;80.38;18891.25;5070706;28;20224;-60
2023/03/10 04:37:57;;;;;;;3.67;1.83;;;8.20;99.90;;;-141.84;80.36;18895.31;5070824;28;20204;-60
2023/03/10 04:40:25;;;;;;;5.27;1.80;;;8.20;99.90;;;-141.84;80.42;18909.53;5071084;28;20649;-60
2023/03/10 04:42:53;;;;;;;3.43;1.70;;;8.20;99.90;;;-141.84;79.75;18919.69;5070900;28;20231;-60
2023/03/10 04:45:21;;;;;;;3.50;1.70;;;8.20;99.90;;;-141.84;80.60;18938.00;5070764;28;20244;-60
2023/03/10 04:47:49;;;;;;;3.57;1.80;;;8.20;99.90;;;-141.84;80.33;18889.22;5070290;28;20239;-61
2023/03/10 04:50:18;;;;;;;6.63;1.93;;;8.20;99.90;;;-141.84;80.21;18901.41;5070514;28;20228;-59
2023/03/10 04:52:48;;;;;;;2.70;1.77;;;8.20;99.90;;;-141.84;80.00;18911.56;5071063;28;20208;-61
2023/03/10 04:55:18;;;;;;;4.20;1.70;;;8.20;99.90;;;-141.84;79.49;18925.81;5070139;28;20265;-60
2023/03/10 04:57:46;;;;;;;2.30;1.60;;;8.30;99.90;;;-141.84;80.32;18889.22;5070607;28;20283;-59
2023/03/10 05:00:15;;;;;;;4.00;1.80;;;8.20;99.90;;;-141.84;80.30;18917.66;5070124;28;20584;-61
2023/03/10 05:02:44;;;;;;;3.10;1.60;;;8.30;99.90;;;-141.84;80.52;18891.25;5070462;28;20595;-61
2023/03/10 05:05:12;;;;;;;3.63;1.90;;;8.20;99.90;;;-141.84;80.53;18913.59;5070539;28;20213;-60
2023/03/10 05:07:40;;;;;;;3.77;1.77;;;8.20;99.90;;;-141.84;80.51;18883.13;5070965;28;20211;-59
2023/03/10 05:10:11;;;;;;;3.40;1.80;;;8.20;99.90;;;-141.84;80.55;18917.66;5069468;28;20220;-60
2023/03/10 05:12:41;;;;;;;6.37;2.03;;;8.20;99.90;;;-141.84;81.38;18889.22;5070269;28;20247;-59
2023/03/10 05:15:11;;;;;;;3.03;1.90;;;8.10;99.90;;;-141.84;81.57;18891.25;5070845;28;20243;-59
2023/03/10 05:17:39;;;;;;;2.93;1.80;;;8.10;99.90;;;-141.84;81.83;18881.09;5070712;28;20221;-60
2023/03/10 05:20:09;;;;;;;4.50;2.00;;;8.00;99.90;;;-141.84;81.82;18889.22;5067233;28;20766;-61
2023/03/10 05:22:38;;;;;;;6.53;2.00;;;8.00;99.90;;;-141.84;81.47;18899.38;5050898;28;20379;-59
2023/03/10 05:25:09;;;;;;;2.57;1.60;;;8.10;99.90;;;-141.84;80.53;18913.59;5050080;28;20233;-60
2023/03/10 05:27:40;;;;;;;2.43;1.60;;;8.10;99.90;;;-141.84;79.84;18931.91;5068225;28;20224;-73
2023/03/10 05:30:13;;;;;;;5.03;2.00;;;8.20;99.90;;;-141.84;80.16;18905.47;5071347;28;20734;-75
2023/03/10 05:32:41;;;;;;;3.53;1.80;;;8.20;99.90;;;-141.84;81.01;18907.50;5071316;28;20231;-61
2023/03/10 05:35:10;;;;;;;3.20;1.63;;;8.20;99.90;;;-141.84;81.15;18879.06;5070173;28;20314;-61
2023/03/10 05:37:40;;;;;;;2.60;1.63;;;8.20;99.90;;;-141.84;81.20;18903.44;5070328;28;20215;-61
2023/03/10 05:40:12;;;;;;;9.13;3.90;;;8.20;99.90;;;-141.84;81.39;18950.19;5069719;28;20240;-60
2023/03/10 05:42:42;;;;;;;4.47;3.27;;;8.20;99.90;;;-141.84;81.56;18893.28;5070060;28;20255;-60
2023/03/10 05:45:11;;;;;;;2.63;1.80;;;8.30;99.90;;;-141.84;82.09;18866.88;5070057;28;20225;-59
2023/03/10 05:47:39;;;;;;;4.57;1.50;;;8.20;99.90;;;-141.84;82.65;18883.13;5069762;28;20224;-61
2023/03/10 05:50:10;;;;;;;3.33;1.70;;;8.20;99.90;;;-141.84;83.20;18885.16;5069915;28;20192;-60
2023/03/10 05:52:39;;;;;;;3.27;1.50;;;8.20;99.90;;;-141.84;83.53;18866.88;5070424;28;20189;-60
2023/03/10 05:55:14;;;;;;;4.47;2.00;;;8.20;99.90;;;-141.84;84.05;18877.03;5069448;28;20654;-60
2023/03/10 05:57:43;;;;;;;3.17;1.53;;;8.20;99.90;;;-141.84;84.60;18872.97;5069673;28;20223;-60
2023/03/10 06:00:14;;;;;;;5.03;2.00;;;8.10;99.90;;;-141.84;84.91;18866.88;5069566;28;20231;-60
2023/03/10 06:02:43;;;;;;;3.00;1.60;;;8.10;99.90;;;-141.84;84.91;18858.75;5069913;28;20228;-60
2023/03/10 06:05:12;;;;;;;2.23;1.80;;;8.20;99.90;;;-141.84;85.44;18805.91;5069370;28;20661;-60
2023/03/10 06:07:41;;;;;;;2.60;1.60;;;8.10;99.90;;;-141.84;86.47;18850.63;5070033;28;20254;-61
2023/03/10 06:10:10;;;;;;;2.77;1.90;;;8.10;99.90;;;-141.84;86.39;18852.66;5069296;28;20221;-60
2023/03/10 06:12:39;;;;;;;2.20;1.70;;;8.10;99.90;;;-141.84;85.77;18858.75;5069626;28;20255;-61
2023/03/10 06:15:10;;;;;;;3.47;1.90;;;8.20;99.90;;;-141.84;86.43;18814.03;5069609;28;20224;-59
2023/03/10 06:17:38;;;;;;;2.67;1.60;;;8.10;99.90;;;-141.84;86.57;18846.56;5056805;28;20229;-61
2023/03/10 06:20:07;;;;;;;3.13;1.60;;;8.10;99.90;;;-141.84;86.50;18852.66;5049581;28;20240;-61
2023/03/10 06:22:35;;;;;;;3.40;1.90;;;8.20;99.90;;;-141.84;86.34;18822.19;5051602;28;20212;-60
2023/03/10 06:25:04;;;;;;;2.37;1.60;;;8.20;99.90;;;-141.84;86.83;18840.47;5053305;28;20651;-59
2023/03/10 06:27:33;;;;;;;3.80;1.77;;;8.20;99.90;;;-141.84;87.20;18842.50;5070197;28;20228;-60
2023/03/10 06:30:01;;;;;;;2.20;1.50;;;8.20;99.90;;;-141.84;87.66;18836.41;5073670;28;20220;-62
2023/03/10 06:32:31;;;;;;;2.43;1.40;;;8.20;99.90;;;-141.84;87.46;18862.81;5073876;28;20231;-60
2023/03/10 06:34:59;;;;;;;2.30;1.70;;;8.20;99.90;;;-141.84;86.18;18834.38;5073436;28;20729;-60
2023/03/10 06:37:28;;;;;;;3.93;2.37;;;8.30;99.90;;;-141.84;86.32;18875.00;5073715;28;20196;-60
2023/03/10 06:39:56;;;;;;;2.13;1.30;;;8.30;99.90;;;-141.84;86.07;18872.97;5037816;28;20227;-59
2023/03/10 06:42:24;;;;;;;2.97;1.80;;;8.40;99.90;;;-141.84;85.81;18826.25;5073235;28;20235;-61
2023/03/10 06:44:54;;;;;;;1.73;1.40;;;8.40;99.90;;;-141.84;85.35;18854.69;5073185;28;20224;-61
2023/03/10 06:47:23;;;;;;;1.93;1.40;;;8.50;99.90;;;-141.84;84.39;18860.78;5073051;28;20216;-59
2023/03/10 06:49:53;;;;;;;2.60;1.20;;;8.60;99.90;;;-141.84;83.71;18889.22;5073715;28;20450;-60
2023/03/10 06:52:21;;;;;;;3.03;1.27;;;8.70;99.90;;;-141.84;83.57;18877.03;5073057;28;20219;-61
2023/03/10 06:54:50;;;;;;;1.63;1.30;;;8.80;99.90;;;-141.84;82.55;18895.31;5072819;28;20235;-60
2023/03/10 06:57:19;;;;;;;1.80;1.00;;;8.90;99.90;;;-141.84;82.46;18927.84;5073107;28;20232;-60
2023/03/10 06:59:48;;;;;;;2.20;1.27;;;9.00;99.90;;;-141.84;81.43;18921.75;5072863;28;20299;-59
2023/03/10 07:02:18;;;;;;;1.10;1.00;;;9.00;99.90;;;-141.84;80.94;18948.16;5072890;28;20221;-60
2023/03/10 07:04:47;;;;;;;1.70;1.13;;;9.10;99.90;;;-141.84;81.45;18946.13;5074002;28;20607;-59
2023/03/10 07:07:16;;;;;;;1.87;1.20;;;9.10;99.90;;;-141.84;80.80;18956.28;5053938;28;20212;-59
2023/03/10 07:09:45;;;;;;;1.60;1.23;;;9.20;99.90;;;-141.84;79.19;18982.69;5072779;28;20232;-60
2023/03/10 07:12:13;;;;;;;1.23;0.90;;;9.40;99.90;;;-141.84;79.37;18990.81;5073282;28;20753;-60
2023/03/10 07:14:42;;;;;;;1.10;0.97;;;9.40;99.90;;;-141.84;78.62;18996.91;5058580;28;20221;-61
2023/03/10 07:17:11;;;;;;;1.90;1.20;;;9.50;99.90;;;-141.84;79.28;18974.56;5053038;28;20206;-60
2023/03/10 07:19:39;;;;;;;2.23;1.30;;;9.50;99.90;;;-141.84;79.74;18964.41;5053111;28;20240;-59
2023/03/10 07:22:07;;;;;;;1.93;1.00;;;9.40;99.90;;;-141.84;79.33;19000.97;5052291;28;20234;-60
2023/03/10 07:24:40;;;;;;;3.47;1.13;;;9.40;99.90;;;-141.84;80.05;18978.63;5052351;28;20225;-59
2023/03/10 07:27:09;;;;;;;1.50;1.07;;;9.30;99.90;;;-141.84;79.81;18996.91;5065325;28;20384;-60
2023/03/10 07:29:37;;;;;;;1.93;1.03;;;9.30;99.90;;;-141.84;78.73;18988.78;5072358;28;20739;-59
2023/03/10 07:32:06;;;;;;;1.00;0.90;;;9.40;99.90;;;-141.84;78.29;19033.50;5072388;28;20205;-60
2023/03/10 07:34:34;;;;;;;2.60;1.30;;;9.50;99.90;;;-141.84;77.31;19053.81;5072452;28;20569;-60
2023/03/10 07:37:02;;;;;;;2.10;1.00;;;9.60;99.90;;;-141.84;77.33;19039.59;5071835;28;20225;-60
2023/03/10 07:39:30;;;;;;;1.90;1.37;;;9.70;99.90;;;-141.84;77.04;19047.72;5071836;28;20224;-61
2023/03/10 07:42:00;;;;;;;2.93;1.20;;;9.80;99.90;;;-141.84;76.31;19074.13;5072101;28;20239;-60
2023/03/10 07:44:28;;;;;;;2.73;1.20;;;9.90;99.90;;;-141.84;76.31;19074.13;5072325;28;20227;-60
2023/03/10 07:46:56;;;;;;;1.47;1.10;;;10.00;99.90;;;-141.84;74.76;19118.84;5071783;28;20197;-59
2023/03/10 07:49:24;;;;;;;2.07;1.20;;;10.30;99.90;;;-141.84;73.99;19151.34;5072763;28;20205;-61
2023/03/10 07:51:53;;;;;;;1.63;0.90;;;10.40;99.90;;;-141.84;72.89;19196.06;5071664;28;20307;-58
2023/03/10 07:54:21;;;;;;;1.67;0.83;;;10.60;99.90;;;-141.84;73.59;19161.50;5072281;28;20229;-61
2023/03/10 07:56:49;;;;;;;2.80;0.90;;;10.60;99.90;;;-141.84;73.84;19155.41;5071853;28;20216;-60
2023/03/10 07:59:19;;;;;;;1.33;1.10;;;10.70;99.90;;;-141.84;73.43;19179.78;5053147;28;20220;-59
2023/03/10 08:01:47;;;;;;;2.23;0.90;;;10.60;99.90;;;-141.84;73.20;19200.13;5072029;28;20224;-59
2023/03/10 08:04:16;;;;;;;1.17;0.97;;;10.60;99.90;;;-141.84;72.80;19214.34;5071798;28;20751;-59
2023/03/10 08:06:46;;;;;;;2.20;1.00;;;10.70;99.90;;;-141.84;72.66;19189.97;5071403;28;20225;-60
2023/03/10 08:09:14;;;;;;;1.40;0.80;;;10.70;99.90;;;-141.84;71.99;19228.56;5065967;28;20221;-61
2023/03/10 08:11:42;;;;;;;1.00;0.90;;;10.80;99.90;;;-141.84;72.29;19261.06;5051423;28;20721;-59
2023/03/10 08:14:10;;;;;;;1.33;1.03;;;11.00;99.90;;;-141.84;71.88;19297.66;5081606;28;20200;-59
2023/03/10 08:16:40;;;;;;;0.60;0.60;;;11.10;99.90;;;-141.84;71.38;19305.78;5092330;28;20196;-60
2023/03/10 08:19:08;;;;;;;0.90;0.70;;;11.20;99.90;;;-141.84;70.85;19287.50;5091493;28;20638;-61
2023/03/10 08:21:36;;;;;;;0.80;0.73;;;11.30;99.90;;;-141.84;69.33;19305.78;5091265;28;20251;-61
2023/03/10 08:24:05;;;;;;;0.70;0.60;;;11.40;99.90;;;-141.84;69.90;19303.75;5091511;28;20231;-60
2023/03/10 08:26:33;;;;;;;1.67;0.70;;;11.40;99.90;;;-141.84;69.67;19320.00;5083126;28;20228;-61
2023/03/10 08:29:01;;;;;;;1.00;0.60;;;11.50;99.90;;;-141.84;69.14;19320.00;5071449;28;20207;-58
2023/03/10 08:31:29;;;;;;;1.57;0.60;;;11.60;99.90;;;-141.84;68.95;19340.31;5071735;28;20199;-59
2023/03/10 08:33:59;;;;;;;1.10;0.70;;;11.70;99.90;;;-141.84;68.34;19364.72;5070976;28;20228;-59
2023/03/10 08:36:30;;;;;;;0.80;0.60;;;11.70;99.90;;;-141.84;68.22;19364.72;5070961;28;20251;-59
2023/03/10 08:39:01;;;;;;;0.80;0.70;;;11.80;99.90;;;-141.84;67.83;19417.56;5082009;28;20239;-60
2023/03/10 08:41:32;;;;;;;0.95;0.80;;;11.90;99.90;;;-141.84;67.41;19403.31;5091050;28;20238;-59
2023/03/10 08:44:05;;;;;;;1.47;0.73;;;12.00;99.90;;;-141.84;66.67;19427.72;5090930;28;20186;-61
2023/03/10 08:46:34;;;;;;;1.30;0.60;;;12.10;99.90;;;-141.84;65.99;19425.69;5084532;28;20181;-60
2023/03/10 08:49:04;;;;;;;1.37;0.50;;;12.10;99.90;;;-141.84;64.50;19478.50;5070639;28;20221;-60
2023/03/10 08:51:32;;;;;;;6.13;0.60;;;12.20;99.90;;;-141.84;65.22;19513.06;5070892;28;20228;-60
2023/03/10 08:54:01;;;;;;;0.77;0.60;;;12.40;99.90;;;-141.84;64.35;19502.91;5070861;28;20263;-60
2023/03/10 08:56:30;;;;;;;0.73;0.50;;;12.50;99.90;;;-141.84;63.05;19565.91;5070532;28;20730;-60
2023/03/10 08:58:59;;;;;;;1.53;0.60;;;12.70;99.90;;;-141.84;62.75;19565.91;5035584;28;20211;-60
2023/03/10 09:01:31;;;;;;;0.98;0.80;;;12.80;99.90;;;-141.84;61.59;19594.34;5071030;28;20254;-61
2023/03/10 09:04:01;;;;;;;1.67;0.80;;;13.00;99.90;;;-141.84;61.30;19624.84;5070417;28;20751;-60
2023/03/10 09:06:31;;;;;;;0.88;0.70;;;13.00;99.90;;;-141.84;61.19;19645.16;5056588;28;20735;-59
2023/03/10 09:09:00;;;;;;;1.40;0.60;;;13.20;99.90;;;-141.84;60.92;19669.53;5079197;28;20224;-60
2023/03/10 09:11:31;;;;;;;2.55;0.88;;;13.30;99.90;;;-141.84;60.40;19695.97;5090326;28;20243;-61
2023/03/10 09:14:01;;;;;;;2.47;0.60;;;13.30;99.90;;;-141.84;60.73;19691.91;5090419;28;20191;-60
2023/03/10 09:16:30;;;;;;;1.00;0.68;;;13.30;99.90;;;-141.84;60.54;19655.31;5090937;28;20208;-60
2023/03/10 09:19:01;;;;;;;1.50;0.70;;;13.30;99.90;;;-141.84;61.19;19659.38;5090543;28;20228;-60
2023/03/10 09:21:32;;;;;;;2.08;0.70;;;13.10;99.90;;;-141.84;60.94;19616.72;5090246;28;20239;-60
2023/03/10 09:24:01;;;;;;;1.35;0.60;;;13.00;99.90;;;-141.84;61.53;19622.81;5090542;28;20251;-60
2023/03/10 09:26:30;;;;;;;1.33;0.70;;;12.80;99.90;;;-141.84;62.33;19604.50;5082412;28;20225;-60
2023/03/10 09:28:58;;;;;;;2.80;0.60;;;12.70;99.90;;;-141.84;62.35;19598.41;5073407;28;20205;-60
2023/03/10 09:31:32;;;;;;;0.98;0.70;;;12.70;99.90;;;-141.84;62.71;19614.66;5070561;28;20671;-61
2023/03/10 09:34:01;;;;;;;2.92;0.90;;;12.60;99.90;;;-141.84;62.52;19639.06;5069383;28;20220;-60
2023/03/10 09:36:29;;;;;;;1.15;0.70;;;12.70;99.90;;;-141.84;62.11;19622.81;5069960;28;20229;-60
2023/03/10 09:39:01;;;;;;;2.90;0.70;;;12.70;99.90;;;-141.84;62.35;19606.53;5071251;28;20237;-59
2023/03/10 09:41:54;;;;;;;1.58;0.82;;;;;;;-141.84;61.64;19632.97;5061635;28;20290;-60
2023/03/10 09:44:29;;;;;;;1.40;0.95;;;;;;;-141.84;61.57;19677.66;5007697;28;20213;-61
2023/03/10 09:47:18;;;;;;;1.70;1.00;;;13.50;99.90;;;-141.84;61.20;19671.56;5034030;28;20273;-59
2023/03/10 09:50:02;;;;;;;3.42;1.13;;;12.90;99.90;;;-141.84;61.25;19667.50;5069228;28;20249;-61
2023/03/10 09:52:44;;;;;;;2.45;0.82;;;12.90;99.90;;;-141.84;61.32;19683.78;5069514;28;20597;-60
2023/03/10 09:55:21;;;;;;;2.00;0.93;;;12.90;99.90;;;-141.84;60.82;19695.97;5069630;28;20228;-60
2023/03/10 09:57:53;;;;;;;1.70;0.75;;;12.90;99.90;;;-141.84;60.95;19691.91;5070956;28;20189;-59
2023/03/10 10:00:27;;;;;;;1.65;0.80;;;12.90;99.90;;;-141.84;61.21;19702.06;5074121;28;20694;-59
2023/03/10 10:03:05;;;;;;;2.30;1.00;;;12.90;99.90;;;-141.84;61.38;19712.22;5072223;28;20229;-61
2023/03/10 10:05:38;;;;;;;2.22;0.90;;;12.90;99.90;;;-141.84;61.53;19683.78;5073433;28;20289;-61
2023/03/10 10:08:21;;;;;;;1.75;0.85;;;12.90;99.90;;;-141.84;60.04;19728.47;5036197;28;20232;-60
2023/03/10 10:10:55;;;;;;;1.40;0.80;;;13.00;99.90;;;-141.84;59.03;19765.06;5065640;28;20217;-59
2023/03/10 10:13:26;;;;;;;2.33;1.02;;;13.20;99.90;;;-141.84;59.94;19720.34;5073519;28;20254;-60
2023/03/10 10:16:03;;;;;;;2.22;1.00;;;13.10;99.90;;;-141.84;59.55;19716.28;5073410;28;20223;-60
2023/03/10 10:19:02;;;;;;;2.20;0.82;;;13.10;99.90;;;-141.84;59.34;19750.84;5073253;28;20668;-60
2023/03/10 10:21:42;;;;;;;2.78;0.80;;;13.20;99.90;;;-141.84;58.88;19728.47;5073474;28;20444;-59
2023/03/10 10:24:18;;;;;;;3.30;0.80;;;13.10;99.90;;;-141.84;58.53;19785.38;5073587;28;20239;-60